Midval, Wyoming
Current Conditions -  °F | °C
As of 8:53 AM on Tuesday 21 Oct 2014 (Local Time) from KLND Reporting Station
Haze Haze  
Wind Chill: 59°   Ceiling: Unl
Heat Index: 59°   Visibility: 5mi
Dew Point: 37°   Wind: 10mph
Humidity: 44%   Direction: 260°W
Pressure: 29.92"   Gusts: NA
Location:  43.1005°N, 108.934°W
Report Text: KLND 211453Z AUTO 26009KT 5SM HZ FEW120 15/03 A2992 RMK AO2 SLP080 T01500028 55000 TSNO
Loading
Personal Weather Stations






























Interactive Weather Map
Tropical Storm Tracking
New forecast layout! Learn more

10-Day Weather Forecast

Advertisements
Track Severe Weather on mobile